sensor_id;sensor_type;location;lat;lon;timestamp;temperature;humidity
67502;SHT30;54349;52.528;19.760;2022-10-16T00:01:44;23.83;55.96
67502;SHT30;54349;52.528;19.760;2022-10-16T00:04:12;23.81;55.97
67502;SHT30;54349;52.528;19.760;2022-10-16T00:06:41;23.79;56.00
67502;SHT30;54349;52.528;19.760;2022-10-16T00:09:09;23.78;55.97
67502;SHT30;54349;52.528;19.760;2022-10-16T00:11:38;23.77;56.00
67502;SHT30;54349;52.528;19.760;2022-10-16T00:14:09;23.76;56.00
67502;SHT30;54349;52.528;19.760;2022-10-16T00:16:42;23.74;56.02
67502;SHT30;54349;52.528;19.760;2022-10-16T00:19:10;23.72;56.00
67502;SHT30;54349;52.528;19.760;2022-10-16T00:21:39;23.71;56.02
67502;SHT30;54349;52.528;19.760;2022-10-16T00:24:09;23.70;56.05
67502;SHT30;54349;52.528;19.760;2022-10-16T00:26:38;23.69;56.07
67502;SHT30;54349;52.528;19.760;2022-10-16T00:29:08;23.68;56.09
67502;SHT30;54349;52.528;19.760;2022-10-16T00:31:36;23.66;56.10
67502;SHT30;54349;52.528;19.760;2022-10-16T00:34:04;23.65;56.09
67502;SHT30;54349;52.528;19.760;2022-10-16T00:36:32;23.64;56.10
67502;SHT30;54349;52.528;19.760;2022-10-16T00:39:01;23.63;56.11
67502;SHT30;54349;52.528;19.760;2022-10-16T00:41:30;23.61;56.10
67502;SHT30;54349;52.528;19.760;2022-10-16T00:44:00;23.61;56.11
67502;SHT30;54349;52.528;19.760;2022-10-16T00:46:34;23.60;56.12
67502;SHT30;54349;52.528;19.760;2022-10-16T00:49:15;23.59;56.15
67502;SHT30;54349;52.528;19.760;2022-10-16T00:51:47;23.58;56.12
67502;SHT30;54349;52.528;19.760;2022-10-16T00:54:24;23.56;56.13
67502;SHT30;54349;52.528;19.760;2022-10-16T00:56:57;23.56;56.10
67502;SHT30;54349;52.528;19.760;2022-10-16T00:59:39;23.53;56.13
67502;SHT30;54349;52.528;19.760;2022-10-16T01:02:13;23.52;56.18
67502;SHT30;54349;52.528;19.760;2022-10-16T01:04:47;23.50;56.15
67502;SHT30;54349;52.528;19.760;2022-10-16T01:10:35;23.48;56.18
67502;SHT30;54349;52.528;19.760;2022-10-16T01:13:10;23.46;56.20
67502;SHT30;54349;52.528;19.760;2022-10-16T01:16:22;23.46;56.18
67502;SHT30;54349;52.528;19.760;2022-10-16T01:19:08;23.45;56.20
67502;SHT30;54349;52.528;19.760;2022-10-16T01:21:45;23.43;56.19
67502;SHT30;54349;52.528;19.760;2022-10-16T01:27:26;23.41;56.20
67502;SHT30;54349;52.528;19.760;2022-10-16T01:30:13;23.40;56.16
67502;SHT30;54349;52.528;19.760;2022-10-16T01:32:56;23.39;56.16
67502;SHT30;54349;52.528;19.760;2022-10-16T01:35:42;23.38;56.19
67502;SHT30;54349;52.528;19.760;2022-10-16T01:40:58;23.36;56.20
67502;SHT30;54349;52.528;19.760;2022-10-16T01:43:38;23.35;56.20
67502;SHT30;54349;52.528;19.760;2022-10-16T01:46:26;23.34;56.19
67502;SHT30;54349;52.528;19.760;2022-10-16T01:48:57;23.33;56.18
67502;SHT30;54349;52.528;19.760;2022-10-16T01:51:29;23.33;56.18
67502;SHT30;54349;52.528;19.760;2022-10-16T01:53:59;23.33;56.20
67502;SHT30;54349;52.528;19.760;2022-10-16T01:56:29;23.31;56.18
67502;SHT30;54349;52.528;19.760;2022-10-16T01:59:04;23.31;56.20
67502;SHT30;54349;52.528;19.760;2022-10-16T02:01:38;23.30;56.19
67502;SHT30;54349;52.528;19.760;2022-10-16T02:05:01;23.29;56.19
67502;SHT30;54349;52.528;19.760;2022-10-16T02:07:09;23.28;56.18
67502;SHT30;54349;52.528;19.760;2022-10-16T02:09:38;23.27;56.16
67502;SHT30;54349;52.528;19.760;2022-10-16T02:12:12;23.27;56.14
67502;SHT30;54349;52.528;19.760;2022-10-16T02:14:49;23.25;56.13
67502;SHT30;54349;52.528;19.760;2022-10-16T02:17:17;23.25;56.12
67502;SHT30;54349;52.528;19.760;2022-10-16T02:19:48;23.24;56.11
67502;SHT30;54349;52.528;19.760;2022-10-16T02:22:34;23.24;56.10
67502;SHT30;54349;52.528;19.760;2022-10-16T02:27:46;23.22;56.10
67502;SHT30;54349;52.528;19.760;2022-10-16T02:33:10;23.20;56.07
67502;SHT30;54349;52.528;19.760;2022-10-16T02:35:44;23.20;56.05
67502;SHT30;54349;52.528;19.760;2022-10-16T02:38:15;23.18;56.03
67502;SHT30;54349;52.528;19.760;2022-10-16T02:40:45;23.17;56.03
67502;SHT30;54349;52.528;19.760;2022-10-16T02:43:14;23.17;56.03
67502;SHT30;54349;52.528;19.760;2022-10-16T02:45:42;23.15;56.00
67502;SHT30;54349;52.528;19.760;2022-10-16T02:48:10;23.15;55.96
67502;SHT30;54349;52.528;19.760;2022-10-16T02:50:38;23.14;55.97
67502;SHT30;54349;52.528;19.760;2022-10-16T02:53:06;23.13;55.91
67502;SHT30;54349;52.528;19.760;2022-10-16T02:55:34;23.12;55.91
67502;SHT30;54349;52.528;19.760;2022-10-16T02:58:02;23.12;55.90
67502;SHT30;54349;52.528;19.760;2022-10-16T03:00:30;23.11;55.89
67502;SHT30;54349;52.528;19.760;2022-10-16T03:02:58;23.10;55.89
67502;SHT30;54349;52.528;19.760;2022-10-16T03:05:26;23.09;55.89
67502;SHT30;54349;52.528;19.760;2022-10-16T03:07:55;23.09;55.85
67502;SHT30;54349;52.528;19.760;2022-10-16T03:10:23;23.08;55.83
67502;SHT30;54349;52.528;19.760;2022-10-16T03:12:51;23.07;55.80
67502;SHT30;54349;52.528;19.760;2022-10-16T03:15:19;23.07;55.79
67502;SHT30;54349;52.528;19.760;2022-10-16T03:17:47;23.05;55.79
67502;SHT30;54349;52.528;19.760;2022-10-16T03:20:15;23.05;55.77
67502;SHT30;54349;52.528;19.760;2022-10-16T03:22:43;23.04;55.75
67502;SHT30;54349;52.528;19.760;2022-10-16T03:25:11;23.03;55.73
67502;SHT30;54349;52.528;19.760;2022-10-16T03:27:39;23.03;55.70
67502;SHT30;54349;52.528;19.760;2022-10-16T03:30:07;23.02;55.70
67502;SHT30;54349;52.528;19.760;2022-10-16T03:32:37;23.02;55.70
67502;SHT30;54349;52.528;19.760;2022-10-16T03:35:05;23.01;55.69
67502;SHT30;54349;52.528;19.760;2022-10-16T03:37:33;22.99;55.62
67502;SHT30;54349;52.528;19.760;2022-10-16T03:40:02;23.00;55.67
67502;SHT30;54349;52.528;19.760;2022-10-16T03:42:31;22.98;55.66
67502;SHT30;54349;52.528;19.760;2022-10-16T03:44:59;22.98;55.60
67502;SHT30;54349;52.528;19.760;2022-10-16T03:47:27;22.97;55.61
67502;SHT30;54349;52.528;19.760;2022-10-16T03:49:56;22.96;55.60
67502;SHT30;54349;52.528;19.760;2022-10-16T03:52:24;22.96;55.57
67502;SHT30;54349;52.528;19.760;2022-10-16T03:54:52;22.95;55.56
67502;SHT30;54349;52.528;19.760;2022-10-16T03:57:20;22.95;55.51
67502;SHT30;54349;52.528;19.760;2022-10-16T03:59:48;22.94;55.52
67502;SHT30;54349;52.528;19.760;2022-10-16T04:02:16;22.93;55.50
67502;SHT30;54349;52.528;19.760;2022-10-16T04:04:44;22.92;55.50
67502;SHT30;54349;52.528;19.760;2022-10-16T04:07:12;22.92;55.50
67502;SHT30;54349;52.528;19.760;2022-10-16T04:09:40;22.92;55.50
67502;SHT30;54349;52.528;19.760;2022-10-16T04:12:08;22.91;55.49
67502;SHT30;54349;52.528;19.760;2022-10-16T04:14:36;22.89;55.44
67502;SHT30;54349;52.528;19.760;2022-10-16T04:17:04;22.90;55.42
67502;SHT30;54349;52.528;19.760;2022-10-16T04:19:32;22.88;55.40
67502;SHT30;54349;52.528;19.760;2022-10-16T04:22:00;22.89;55.40
67502;SHT30;54349;52.528;19.760;2022-10-16T04:24:28;22.87;55.39
67502;SHT30;54349;52.528;19.760;2022-10-16T04:26:56;22.87;55.39
67502;SHT30;54349;52.528;19.760;2022-10-16T04:29:24;22.87;55.40
67502;SHT30;54349;52.528;19.760;2022-10-16T04:31:52;22.86;55.40
67502;SHT30;54349;52.528;19.760;2022-10-16T04:34:20;22.84;55.41
67502;SHT30;54349;52.528;19.760;2022-10-16T04:36:48;22.85;55.41
67502;SHT30;54349;52.528;19.760;2022-10-16T04:39:17;22.83;55.40
67502;SHT30;54349;52.528;19.760;2022-10-16T04:41:45;22.83;55.40
67502;SHT30;54349;52.528;19.760;2022-10-16T04:44:13;22.83;55.40
67502;SHT30;54349;52.528;19.760;2022-10-16T04:46:41;22.83;55.32
67502;SHT30;54349;52.528;19.760;2022-10-16T04:49:09;22.85;55.09
67502;SHT30;54349;52.528;19.760;2022-10-16T04:51:37;22.87;54.92
67502;SHT30;54349;52.528;19.760;2022-10-16T04:54:05;22.91;54.89
67502;SHT30;54349;52.528;19.760;2022-10-16T04:56:33;22.96;54.79
67502;SHT30;54349;52.528;19.760;2022-10-16T04:59:07;23.00;54.70
67502;SHT30;54349;52.528;19.760;2022-10-16T05:01:35;23.03;54.53
67502;SHT30;54349;52.528;19.760;2022-10-16T05:04:03;23.07;54.50
67502;SHT30;54349;52.528;19.760;2022-10-16T05:06:31;23.11;54.49
67502;SHT30;54349;52.528;19.760;2022-10-16T05:08:59;23.14;54.46
67502;SHT30;54349;52.528;19.760;2022-10-16T05:11:27;23.17;54.38
67502;SHT30;54349;52.528;19.760;2022-10-16T05:13:55;23.21;54.32
67502;SHT30;54349;52.528;19.760;2022-10-16T05:16:24;23.23;54.22
67502;SHT30;54349;52.528;19.760;2022-10-16T05:18:52;23.25;54.20
67502;SHT30;54349;52.528;19.760;2022-10-16T05:21:36;23.29;54.20
67502;SHT30;54349;52.528;19.760;2022-10-16T05:24:04;23.31;54.19
67502;SHT30;54349;52.528;19.760;2022-10-16T05:26:32;23.33;54.20
67502;SHT30;54349;52.528;19.760;2022-10-16T05:29:00;23.36;54.12
67502;SHT30;54349;52.528;19.760;2022-10-16T05:31:28;23.37;54.06
67502;SHT30;54349;52.528;19.760;2022-10-16T05:33:59;23.41;53.97
67502;SHT30;54349;52.528;19.760;2022-10-16T05:36:28;23.42;53.93
67502;SHT30;54349;52.528;19.760;2022-10-16T05:38:56;23.44;53.98
67502;SHT30;54349;52.528;19.760;2022-10-16T05:41:24;23.45;53.95
67502;SHT30;54349;52.528;19.760;2022-10-16T05:43:53;23.46;53.91
67502;SHT30;54349;52.528;19.760;2022-10-16T05:46:22;23.47;53.90
67502;SHT30;54349;52.528;19.760;2022-10-16T05:48:51;23.48;53.82
67502;SHT30;54349;52.528;19.760;2022-10-16T05:51:20;23.49;53.73
67502;SHT30;54349;52.528;19.760;2022-10-16T05:53:49;23.51;53.68
67502;SHT30;54349;52.528;19.760;2022-10-16T05:56:17;23.52;53.64
67502;SHT30;54349;52.528;19.760;2022-10-16T05:58:44;23.53;53.70
67502;SHT30;54349;52.528;19.760;2022-10-16T06:01:13;23.53;53.71
67502;SHT30;54349;52.528;19.760;2022-10-16T06:03:46;23.53;53.79
67502;SHT30;54349;52.528;19.760;2022-10-16T06:06:16;23.53;53.77
67502;SHT30;54349;52.528;19.760;2022-10-16T06:08:48;23.53;53.70
67502;SHT30;54349;52.528;19.760;2022-10-16T06:11:21;23.53;53.70
67502;SHT30;54349;52.528;19.760;2022-10-16T06:13:56;23.52;53.65
67502;SHT30;54349;52.528;19.760;2022-10-16T06:16:29;23.52;53.72
67502;SHT30;54349;52.528;19.760;2022-10-16T06:18:57;23.51;53.71
67502;SHT30;54349;52.528;19.760;2022-10-16T06:21:27;23.50;53.71
67502;SHT30;54349;52.528;19.760;2022-10-16T06:23:57;23.49;53.71
67502;SHT30;54349;52.528;19.760;2022-10-16T06:26:27;23.49;53.71
67502;SHT30;54349;52.528;19.760;2022-10-16T06:28:58;23.48;53.84
67502;SHT30;54349;52.528;19.760;2022-10-16T06:31:27;23.48;53.98
67502;SHT30;54349;52.528;19.760;2022-10-16T06:33:59;23.47;54.16
67502;SHT30;54349;52.528;19.760;2022-10-16T06:36:28;23.48;54.29
67502;SHT30;54349;52.528;19.760;2022-10-16T06:38:56;23.47;54.41
67502;SHT30;54349;52.528;19.760;2022-10-16T06:41:24;23.47;54.50
67502;SHT30;54349;52.528;19.760;2022-10-16T06:43:52;23.47;54.54
67502;SHT30;54349;52.528;19.760;2022-10-16T06:46:21;23.47;54.60
67502;SHT30;54349;52.528;19.760;2022-10-16T06:48:52;23.48;54.67
67502;SHT30;54349;52.528;19.760;2022-10-16T06:51:22;23.47;54.80
67502;SHT30;54349;52.528;19.760;2022-10-16T06:53:53;23.47;54.86
67502;SHT30;54349;52.528;19.760;2022-10-16T06:56:31;23.46;54.91
67502;SHT30;54349;52.528;19.760;2022-10-16T06:59:01;23.48;54.98
67502;SHT30;54349;52.528;19.760;2022-10-16T07:01:30;23.46;54.97
67502;SHT30;54349;52.528;19.760;2022-10-16T07:03:59;23.46;55.02
67502;SHT30;54349;52.528;19.760;2022-10-16T07:06:31;23.47;55.14
67502;SHT30;54349;52.528;19.760;2022-10-16T07:09:03;23.46;55.33
67502;SHT30;54349;52.528;19.760;2022-10-16T07:11:34;23.47;55.55
67502;SHT30;54349;52.528;19.760;2022-10-16T07:14:09;23.47;55.76
67502;SHT30;54349;52.528;19.760;2022-10-16T07:16:44;23.48;55.88
67502;SHT30;54349;52.528;19.760;2022-10-16T07:19:14;23.49;55.90
67502;SHT30;54349;52.528;19.760;2022-10-16T07:21:45;23.48;55.81
67502;SHT30;54349;52.528;19.760;2022-10-16T07:24:14;23.50;55.77
67502;SHT30;54349;52.528;19.760;2022-10-16T07:26:44;23.49;55.75
67502;SHT30;54349;52.528;19.760;2022-10-16T07:29:23;23.50;55.70
67502;SHT30;54349;52.528;19.760;2022-10-16T07:31:51;23.50;55.75
67502;SHT30;54349;52.528;19.760;2022-10-16T07:34:19;23.50;55.71
67502;SHT30;54349;52.528;19.760;2022-10-16T07:36:51;23.51;55.70
67502;SHT30;54349;52.528;19.760;2022-10-16T07:39:22;23.52;55.69
67502;SHT30;54349;52.528;19.760;2022-10-16T07:41:50;23.53;55.63
67502;SHT30;54349;52.528;19.760;2022-10-16T07:44:18;23.55;55.66
67502;SHT30;54349;52.528;19.760;2022-10-16T07:46:46;23.55;55.61
67502;SHT30;54349;52.528;19.760;2022-10-16T07:49:15;23.55;55.60
67502;SHT30;54349;52.528;19.760;2022-10-16T07:51:42;23.56;55.60
67502;SHT30;54349;52.528;19.760;2022-10-16T07:54:10;23.56;55.59
67502;SHT30;54349;52.528;19.760;2022-10-16T07:56:38;23.58;55.63
67502;SHT30;54349;52.528;19.760;2022-10-16T07:59:10;23.59;55.67
67502;SHT30;54349;52.528;19.760;2022-10-16T08:01:39;23.59;55.61
67502;SHT30;54349;52.528;19.760;2022-10-16T08:04:07;23.59;55.66
67502;SHT30;54349;52.528;19.760;2022-10-16T08:06:38;23.59;55.57
67502;SHT30;54349;52.528;19.760;2022-10-16T08:09:08;23.60;55.54
67502;SHT30;54349;52.528;19.760;2022-10-16T08:11:36;23.60;55.47
67502;SHT30;54349;52.528;19.760;2022-10-16T08:14:04;23.61;55.53
67502;SHT30;54349;52.528;19.760;2022-10-16T08:16:35;23.61;55.59
67502;SHT30;54349;52.528;19.760;2022-10-16T08:19:02;23.62;55.58
67502;SHT30;54349;52.528;19.760;2022-10-16T08:21:31;23.62;55.50
67502;SHT30;54349;52.528;19.760;2022-10-16T08:23:59;23.63;55.48
67502;SHT30;54349;52.528;19.760;2022-10-16T08:26:27;23.64;55.50
67502;SHT30;54349;52.528;19.760;2022-10-16T08:28:55;23.64;55.40
67502;SHT30;54349;52.528;19.760;2022-10-16T08:31:24;23.64;55.46
67502;SHT30;54349;52.528;19.760;2022-10-16T08:33:54;23.65;55.45
67502;SHT30;54349;52.528;19.760;2022-10-16T08:36:22;23.66;55.48
67502;SHT30;54349;52.528;19.760;2022-10-16T08:38:50;23.67;55.42
67502;SHT30;54349;52.528;19.760;2022-10-16T08:44:09;23.67;55.40
67502;SHT30;54349;52.528;19.760;2022-10-16T08:46:46;23.67;55.36
67502;SHT30;54349;52.528;19.760;2022-10-16T08:49:29;23.67;55.36
67502;SHT30;54349;52.528;19.760;2022-10-16T08:51:58;23.68;55.39
67502;SHT30;54349;52.528;19.760;2022-10-16T08:54:29;23.69;55.38
67502;SHT30;54349;52.528;19.760;2022-10-16T08:57:07;23.70;55.38
67502;SHT30;54349;52.528;19.760;2022-10-16T08:59:49;23.70;55.32
67502;SHT30;54349;52.528;19.760;2022-10-16T09:07:54;23.69;55.06
67502;SHT30;54349;52.528;19.760;2022-10-16T09:10:58;23.69;54.90
67502;SHT30;54349;52.528;19.760;2022-10-16T09:13:50;23.68;54.87
67502;SHT30;54349;52.528;19.760;2022-10-16T09:19:27;23.66;54.71
67502;SHT30;54349;52.528;19.760;2022-10-16T09:22:04;23.65;54.71
67502;SHT30;54349;52.528;19.760;2022-10-16T09:24:43;23.66;54.64
67502;SHT30;54349;52.528;19.760;2022-10-16T09:27:12;23.64;54.60
67502;SHT30;54349;52.528;19.760;2022-10-16T09:29:42;23.65;54.57
67502;SHT30;54349;52.528;19.760;2022-10-16T09:32:11;23.65;54.51
67502;SHT30;54349;52.528;19.760;2022-10-16T09:34:52;23.64;54.54
67502;SHT30;54349;52.528;19.760;2022-10-16T09:37:26;23.64;54.50
67502;SHT30;54349;52.528;19.760;2022-10-16T09:39:55;23.64;54.46
67502;SHT30;54349;52.528;19.760;2022-10-16T09:44:59;23.63;54.42
67502;SHT30;54349;52.528;19.760;2022-10-16T09:47:29;23.63;54.41
67502;SHT30;54349;52.528;19.760;2022-10-16T09:50:00;23.62;54.34
67502;SHT30;54349;52.528;19.760;2022-10-16T09:52:49;23.63;54.32
67502;SHT30;54349;52.528;19.760;2022-10-16T09:55:17;23.63;54.28
67502;SHT30;54349;52.528;19.760;2022-10-16T09:57:50;23.63;54.24
67502;SHT30;54349;52.528;19.760;2022-10-16T10:00:20;23.62;54.22
67502;SHT30;54349;52.528;19.760;2022-10-16T10:02:50;23.62;54.15
67502;SHT30;54349;52.528;19.760;2022-10-16T10:05:26;23.62;54.14
67502;SHT30;54349;52.528;19.760;2022-10-16T10:07:57;23.62;54.12
67502;SHT30;54349;52.528;19.760;2022-10-16T10:10:40;23.62;54.10
67502;SHT30;54349;52.528;19.760;2022-10-16T10:13:19;23.64;54.11
67502;SHT30;54349;52.528;19.760;2022-10-16T10:15:51;23.63;54.04
67502;SHT30;54349;52.528;19.760;2022-10-16T10:18:21;23.65;54.06
67502;SHT30;54349;52.528;19.760;2022-10-16T10:20:58;23.64;54.08
67502;SHT30;54349;52.528;19.760;2022-10-16T10:23:28;23.65;54.09
67502;SHT30;54349;52.528;19.760;2022-10-16T10:26:20;23.66;54.11
67502;SHT30;54349;52.528;19.760;2022-10-16T10:28:59;23.65;54.10
67502;SHT30;54349;52.528;19.760;2022-10-16T10:31:58;23.66;54.14
67502;SHT30;54349;52.528;19.760;2022-10-16T10:35:14;23.65;54.15
67502;SHT30;54349;52.528;19.760;2022-10-16T10:40:52;23.66;54.13
67502;SHT30;54349;52.528;19.760;2022-10-16T10:46:14;23.67;54.10
67502;SHT30;54349;52.528;19.760;2022-10-16T10:52:00;23.67;54.17
67502;SHT30;54349;52.528;19.760;2022-10-16T10:58:12;23.68;54.21
67502;SHT30;54349;52.528;19.760;2022-10-16T11:01:23;23.68;54.24
67502;SHT30;54349;52.528;19.760;2022-10-16T11:07:10;23.68;54.27
67502;SHT30;54349;52.528;19.760;2022-10-16T11:09:48;23.68;54.28
67502;SHT30;54349;52.528;19.760;2022-10-16T11:18:13;23.67;54.32
67502;SHT30;54349;52.528;19.760;2022-10-16T11:20:51;23.67;54.31
67502;SHT30;54349;52.528;19.760;2022-10-16T11:23:33;23.67;54.32
67502;SHT30;54349;52.528;19.760;2022-10-16T11:26:19;23.68;54.36
67502;SHT30;54349;52.528;19.760;2022-10-16T11:28:58;23.68;54.34
67502;SHT30;54349;52.528;19.760;2022-10-16T11:31:38;23.68;54.32
67502;SHT30;54349;52.528;19.760;2022-10-16T11:34:34;23.68;54.35
67502;SHT30;54349;52.528;19.760;2022-10-16T11:37:12;23.68;54.33
67502;SHT30;54349;52.528;19.760;2022-10-16T11:39:47;23.69;54.35
67502;SHT30;54349;52.528;19.760;2022-10-16T11:42:21;23.69;54.30
67502;SHT30;54349;52.528;19.760;2022-10-16T11:47:35;23.70;54.26
67502;SHT30;54349;52.528;19.760;2022-10-16T11:50:36;23.71;54.23
67502;SHT30;54349;52.528;19.760;2022-10-16T11:55:56;23.72;54.15
67502;SHT30;54349;52.528;19.760;2022-10-16T12:01:41;23.74;54.11
67502;SHT30;54349;52.528;19.760;2022-10-16T12:06:51;23.73;54.10
67502;SHT30;54349;52.528;19.760;2022-10-16T12:09:38;23.74;54.10
67502;SHT30;54349;52.528;19.760;2022-10-16T12:18:21;23.76;54.04
67502;SHT30;54349;52.528;19.760;2022-10-16T12:20:55;23.75;54.09
67502;SHT30;54349;52.528;19.760;2022-10-16T12:23:28;23.76;54.07
67502;SHT30;54349;52.528;19.760;2022-10-16T12:25:57;23.76;54.04
67502;SHT30;54349;52.528;19.760;2022-10-16T12:28:30;23.77;54.01
67502;SHT30;54349;52.528;19.760;2022-10-16T12:31:04;23.77;54.02
67502;SHT30;54349;52.528;19.760;2022-10-16T12:33:40;23.78;53.98
67502;SHT30;54349;52.528;19.760;2022-10-16T12:36:30;23.78;53.98
67502;SHT30;54349;52.528;19.760;2022-10-16T12:39:02;23.78;53.98
67502;SHT30;54349;52.528;19.760;2022-10-16T12:41:32;23.78;53.97
67502;SHT30;54349;52.528;19.760;2022-10-16T12:44:03;23.79;53.92
67502;SHT30;54349;52.528;19.760;2022-10-16T12:46:35;23.78;53.91
67502;SHT30;54349;52.528;19.760;2022-10-16T12:49:21;23.79;53.91
67502;SHT30;54349;52.528;19.760;2022-10-16T12:51:56;23.79;53.89
67502;SHT30;54349;52.528;19.760;2022-10-16T12:54:34;23.79;53.90
67502;SHT30;54349;52.528;19.760;2022-10-16T13:06:45;23.80;53.81
67502;SHT30;54349;52.528;19.760;2022-10-16T13:12:44;23.80;53.82
67502;SHT30;54349;52.528;19.760;2022-10-16T13:16:12;23.80;53.79
67502;SHT30;54349;52.528;19.760;2022-10-16T13:18:43;23.79;53.78
67502;SHT30;54349;52.528;19.760;2022-10-16T13:22:10;23.80;53.80
67502;SHT30;54349;52.528;19.760;2022-10-16T13:30:25;23.79;53.80
67502;SHT30;54349;52.528;19.760;2022-10-16T13:33:16;23.80;53.79
67502;SHT30;54349;52.528;19.760;2022-10-16T13:35:52;23.80;53.80
67502;SHT30;54349;52.528;19.760;2022-10-16T13:38:23;23.78;53.78
67502;SHT30;54349;52.528;19.760;2022-10-16T13:40:58;23.78;53.79
67502;SHT30;54349;52.528;19.760;2022-10-16T13:46:11;23.78;53.77
67502;SHT30;54349;52.528;19.760;2022-10-16T13:48:42;23.78;53.78
67502;SHT30;54349;52.528;19.760;2022-10-16T13:51:15;23.78;53.79
67502;SHT30;54349;52.528;19.760;2022-10-16T13:53:46;23.77;53.78
67502;SHT30;54349;52.528;19.760;2022-10-16T13:56:15;23.77;53.76
67502;SHT30;54349;52.528;19.760;2022-10-16T13:58:57;23.77;53.79
67502;SHT30;54349;52.528;19.760;2022-10-16T14:01:40;23.76;53.80
67502;SHT30;54349;52.528;19.760;2022-10-16T14:04:11;23.75;53.80
67502;SHT30;54349;52.528;19.760;2022-10-16T14:06:43;23.75;53.83
67502;SHT30;54349;52.528;19.760;2022-10-16T14:09:34;23.74;53.81
67502;SHT30;54349;52.528;19.760;2022-10-16T14:12:08;23.74;53.82
67502;SHT30;54349;52.528;19.760;2022-10-16T14:14:52;23.73;53.81
67502;SHT30;54349;52.528;19.760;2022-10-16T14:17:24;23.73;53.82
67502;SHT30;54349;52.528;19.760;2022-10-16T14:19:59;23.73;53.84
67502;SHT30;54349;52.528;19.760;2022-10-16T14:22:35;23.73;53.84
67502;SHT30;54349;52.528;19.760;2022-10-16T14:27:59;23.71;53.89
67502;SHT30;54349;52.528;19.760;2022-10-16T14:30:33;23.70;53.84
67502;SHT30;54349;52.528;19.760;2022-10-16T14:33:04;23.70;53.85
67502;SHT30;54349;52.528;19.760;2022-10-16T14:35:56;23.70;53.89
67502;SHT30;54349;52.528;19.760;2022-10-16T14:38:31;23.69;53.89
67502;SHT30;54349;52.528;19.760;2022-10-16T14:41:01;23.69;53.90
67502;SHT30;54349;52.528;19.760;2022-10-16T14:46:12;23.68;53.90
67502;SHT30;54349;52.528;19.760;2022-10-16T14:49:15;23.68;53.90
67502;SHT30;54349;52.528;19.760;2022-10-16T14:51:48;23.67;53.92
67502;SHT30;54349;52.528;19.760;2022-10-16T14:54:17;23.66;53.95
67502;SHT30;54349;52.528;19.760;2022-10-16T14:56:47;23.66;53.93
67502;SHT30;54349;52.528;19.760;2022-10-16T14:59:24;23.65;53.92
67502;SHT30;54349;52.528;19.760;2022-10-16T15:04:55;23.64;53.92
67502;SHT30;54349;52.528;19.760;2022-10-16T15:07:24;23.64;53.91
67502;SHT30;54349;52.528;19.760;2022-10-16T15:09:53;23.63;53.96
67502;SHT30;54349;52.528;19.760;2022-10-16T15:12:22;23.63;53.99
67502;SHT30;54349;52.528;19.760;2022-10-16T15:14:50;23.61;53.96
67502;SHT30;54349;52.528;19.760;2022-10-16T15:17:18;23.61;53.94
67502;SHT30;54349;52.528;19.760;2022-10-16T15:19:48;23.61;53.99
67502;SHT30;54349;52.528;19.760;2022-10-16T15:22:16;23.61;54.00
67502;SHT30;54349;52.528;19.760;2022-10-16T15:24:45;23.60;54.01
67502;SHT30;54349;52.528;19.760;2022-10-16T15:27:13;23.59;54.01
67502;SHT30;54349;52.528;19.760;2022-10-16T15:29:41;23.59;54.02
67502;SHT30;54349;52.528;19.760;2022-10-16T15:32:10;23.59;54.03
67502;SHT30;54349;52.528;19.760;2022-10-16T15:34:38;23.57;54.03
67502;SHT30;54349;52.528;19.760;2022-10-16T15:37:06;23.57;54.04
67502;SHT30;54349;52.528;19.760;2022-10-16T15:39:36;23.57;54.08
67502;SHT30;54349;52.528;19.760;2022-10-16T15:42:07;23.56;54.07
67502;SHT30;54349;52.528;19.760;2022-10-16T15:44:35;23.55;54.10
67502;SHT30;54349;52.528;19.760;2022-10-16T15:47:03;23.54;54.10
67502;SHT30;54349;52.528;19.760;2022-10-16T15:49:32;23.54;54.11
67502;SHT30;54349;52.528;19.760;2022-10-16T15:52:00;23.53;54.11
67502;SHT30;54349;52.528;19.760;2022-10-16T15:54:28;23.52;54.10
67502;SHT30;54349;52.528;19.760;2022-10-16T15:56:56;23.51;54.14
67502;SHT30;54349;52.528;19.760;2022-10-16T15:59:24;23.51;54.15
67502;SHT30;54349;52.528;19.760;2022-10-16T16:01:52;23.50;54.17
67502;SHT30;54349;52.528;19.760;2022-10-16T16:04:20;23.50;54.19
67502;SHT30;54349;52.528;19.760;2022-10-16T16:07:08;23.49;54.18
67502;SHT30;54349;52.528;19.760;2022-10-16T16:09:37;23.49;54.20
67502;SHT30;54349;52.528;19.760;2022-10-16T16:12:05;23.47;54.21
67502;SHT30;54349;52.528;19.760;2022-10-16T16:14:34;23.47;54.20
67502;SHT30;54349;52.528;19.760;2022-10-16T16:17:02;23.47;54.19
67502;SHT30;54349;52.528;19.760;2022-10-16T16:19:31;23.46;54.21
67502;SHT30;54349;52.528;19.760;2022-10-16T16:22:00;23.45;54.23
67502;SHT30;54349;52.528;19.760;2022-10-16T16:24:28;23.44;54.22
67502;SHT30;54349;52.528;19.760;2022-10-16T16:26:57;23.44;54.28
67502;SHT30;54349;52.528;19.760;2022-10-16T16:29:29;23.43;54.30
67502;SHT30;54349;52.528;19.760;2022-10-16T16:31:58;23.42;54.32
67502;SHT30;54349;52.528;19.760;2022-10-16T16:34:28;23.41;54.30
67502;SHT30;54349;52.528;19.760;2022-10-16T16:36:59;23.41;54.32
67502;SHT30;54349;52.528;19.760;2022-10-16T16:39:28;23.40;54.33
67502;SHT30;54349;52.528;19.760;2022-10-16T16:41:57;23.40;54.32
67502;SHT30;54349;52.528;19.760;2022-10-16T16:44:30;23.39;54.38
67502;SHT30;54349;52.528;19.760;2022-10-16T16:46:58;23.39;54.39
67502;SHT30;54349;52.528;19.760;2022-10-16T16:49:26;23.38;54.45
67502;SHT30;54349;52.528;19.760;2022-10-16T16:51:54;23.38;54.48
67502;SHT30;54349;52.528;19.760;2022-10-16T16:54:23;23.38;54.51
67502;SHT30;54349;52.528;19.760;2022-10-16T16:56:51;23.37;54.56
67502;SHT30;54349;52.528;19.760;2022-10-16T16:59:19;23.36;54.60
67502;SHT30;54349;52.528;19.760;2022-10-16T17:01:49;23.37;54.62
67502;SHT30;54349;52.528;19.760;2022-10-16T17:04:23;23.36;54.70
67502;SHT30;54349;52.528;19.760;2022-10-16T17:06:54;23.35;54.75
67502;SHT30;54349;52.528;19.760;2022-10-16T17:09:23;23.34;54.80
67502;SHT30;54349;52.528;19.760;2022-10-16T17:11:51;23.34;54.88
67502;SHT30;54349;52.528;19.760;2022-10-16T17:14:19;23.33;54.96
67502;SHT30;54349;52.528;19.760;2022-10-16T17:16:48;23.33;55.07
67502;SHT30;54349;52.528;19.760;2022-10-16T17:19:17;23.33;55.15
67502;SHT30;54349;52.528;19.760;2022-10-16T17:21:50;23.32;55.22
67502;SHT30;54349;52.528;19.760;2022-10-16T17:24:20;23.32;55.35
67502;SHT30;54349;52.528;19.760;2022-10-16T17:26:49;23.31;55.50